Time;durP1;ratioP1;P1;durP2;ratioP2;P2;SDS_P1;SDS_P2;PMS_P1;PMS_P2;Temp;Humidity;BMP_temperature;BMP_pressure;BME280_temperature;BME280_humidity;BME280_pressure;Samples;Min_cycle;Max_cycle;Signal;HPM_P1;HPM_P2
2024/01/20 00:01:36;;;;;;;45.87;25.00;;;;;;;;;;5092813;28;20446;-68
2024/01/20 00:04:03;;;;;;;43.37;24.63;;;;;;;;;;5090469;28;20451;-69
2024/01/20 00:06:29;;;;;;;47.70;23.77;;;;;;;;;;5094608;28;20449;-68
2024/01/20 00:08:56;;;;;;;39.83;22.57;;;;;;;;;;5087035;28;20464;-67
2024/01/20 00:11:22;;;;;;;43.70;24.40;;;;;;;;;;5096013;28;20465;-67
2024/01/20 00:13:49;;;;;;;53.93;28.10;;;;;;;;;;5093913;28;20826;-66
2024/01/20 00:16:15;;;;;;;46.60;27.17;;;;;;;;;;5084286;28;20488;-68
2024/01/20 00:18:43;;;;;;;36.60;21.20;;;;;;;;;;5095659;28;20473;-68
2024/01/20 00:21:09;;;;;;;48.87;26.80;;;;;;;;;;5092165;28;21016;-68
2024/01/20 00:23:37;;;;;;;40.50;27.30;;;;;;;;;;5094844;28;20460;-69
2024/01/20 00:26:03;;;;;;;52.70;27.90;;;;;;;;;;5086511;28;20458;-68
2024/01/20 00:28:30;;;;;;;43.10;24.80;;;;;;;;;;5095311;28;20462;-68
2024/01/20 00:30:56;;;;;;;48.63;26.73;;;;;;;;;;5099007;28;21606;-68
2024/01/20 00:33:22;;;;;;;44.80;27.70;;;;;;;;;;5097718;28;20992;-68
2024/01/20 00:35:50;;;;;;;47.90;27.53;;;;;;;;;;5093414;28;20570;-68
2024/01/20 00:38:17;;;;;;;49.13;25.33;;;;;;;;;;5095845;28;20709;-66
2024/01/20 00:40:43;;;;;;;46.07;27.00;;;;;;;;;;5094573;28;20951;-68
2024/01/20 00:43:10;;;;;;;53.77;30.80;;;;;;;;;;5100265;28;20489;-67
2024/01/20 00:45:36;;;;;;;47.20;27.23;;;;;;;;;;5090657;28;20947;-68
2024/01/20 00:48:03;;;;;;;47.43;24.70;;;;;;;;;;5100323;28;20496;-68
2024/01/20 00:50:29;;;;;;;48.87;27.37;;;;;;;;;;5098538;28;20490;-66
2024/01/20 00:52:57;;;;;;;44.47;24.57;;;;;;;;;;5094038;28;20539;-68
2024/01/20 00:55:23;;;;;;;46.03;28.03;;;;;;;;;;5095355;28;20474;-68
2024/01/20 00:57:50;;;;;;;44.47;23.83;;;;;;;;;;5092880;28;20530;-68
2024/01/20 01:00:16;;;;;;;58.00;27.37;;;;;;;;;;5088424;28;20498;-67
2024/01/20 01:02:43;;;;;;;47.90;26.93;;;;;;;;;;5093068;28;20554;-68
2024/01/20 01:05:09;;;;;;;45.43;25.17;;;;;;;;;;5091937;28;20487;-67
2024/01/20 01:07:36;;;;;;;48.70;28.50;;;;;;;;;;5095373;28;20481;-68
2024/01/20 01:10:06;;;;;;;48.63;28.87;;;;;;;;;;5092784;28;20518;-68
2024/01/20 01:12:32;;;;;;;53.10;29.00;;;;;;;;;;5095339;28;20533;-68
2024/01/20 01:14:59;;;;;;;63.23;27.27;;;;;;;;;;5101176;28;20470;-68
2024/01/20 01:17:25;;;;;;;58.67;29.10;;;;;;;;;;5099689;28;20500;-69
2024/01/20 01:19:52;;;;;;;59.17;27.67;;;;;;;;;;5096040;28;20455;-69
2024/01/20 01:22:18;;;;;;;48.73;27.20;;;;;;;;;;5111221;28;20449;-68
2024/01/20 01:24:45;;;;;;;60.50;28.40;;;;;;;;;;5099302;28;20771;-68
2024/01/20 01:27:12;;;;;;;61.23;27.63;;;;;;;;;;5099439;28;20500;-68
2024/01/20 01:29:38;;;;;;;52.77;27.80;;;;;;;;;;5099265;28;20517;-68
2024/01/20 01:32:04;;;;;;;58.30;28.67;;;;;;;;;;5095048;28;20450;-67
2024/01/20 01:34:31;;;;;;;49.37;28.60;;;;;;;;;;5106324;28;20227;-68
2024/01/20 01:36:57;;;;;;;53.77;28.83;;;;;;;;;;5096036;28;20459;-68
2024/01/20 01:39:24;;;;;;;56.53;25.57;;;;;;;;;;5096040;28;20505;-68
2024/01/20 01:41:50;;;;;;;59.30;25.93;;;;;;;;;;5099028;28;21039;-68
2024/01/20 01:44:18;;;;;;;48.10;26.77;;;;;;;;;;5099180;28;20486;-68
2024/01/20 01:46:44;;;;;;;54.07;26.53;;;;;;;;;;5094377;28;21075;-67
2024/01/20 01:49:12;;;;;;;58.40;29.50;;;;;;;;;;5092657;28;20596;-67
2024/01/20 01:51:39;;;;;;;57.33;27.33;;;;;;;;;;5094989;28;20533;-68
2024/01/20 01:54:05;;;;;;;51.50;28.13;;;;;;;;;;5098410;28;20503;-68
2024/01/20 01:56:32;;;;;;;48.93;27.03;;;;;;;;;;5099511;28;20680;-68
2024/01/20 01:58:58;;;;;;;52.20;29.97;;;;;;;;;;5106528;28;20727;-68
2024/01/20 02:01:26;;;;;;;50.07;27.87;;;;;;;;;;5094451;28;20550;-68
2024/01/20 02:03:53;;;;;;;48.93;26.13;;;;;;;;;;5090290;28;20856;-68
2024/01/20 02:06:19;;;;;;;52.63;24.67;;;;;;;;;;5097764;28;20487;-68
2024/01/20 02:08:45;;;;;;;49.97;25.97;;;;;;;;;;5098360;28;20503;-68
2024/01/20 02:11:12;;;;;;;50.63;26.27;;;;;;;;;;5099689;28;20521;-69
2024/01/20 02:13:38;;;;;;;50.47;26.03;;;;;;;;;;5105463;28;20461;-68
2024/01/20 02:16:05;;;;;;;45.40;24.83;;;;;;;;;;5095932;28;20458;-68
2024/01/20 02:18:33;;;;;;;52.20;27.73;;;;;;;;;;5099416;28;20485;-68
2024/01/20 02:20:59;;;;;;;47.77;26.40;;;;;;;;;;5098378;28;20486;-68
2024/01/20 02:23:28;;;;;;;42.70;24.90;;;;;;;;;;5098615;28;20482;-67
2024/01/20 02:25:54;;;;;;;44.00;24.67;;;;;;;;;;5097392;28;21066;-67
2024/01/20 02:28:21;;;;;;;49.43;26.10;;;;;;;;;;5097886;28;20477;-68
2024/01/20 02:30:47;;;;;;;45.20;25.63;;;;;;;;;;5097836;28;20517;-68
2024/01/20 02:33:13;;;;;;;46.57;25.40;;;;;;;;;;5096997;28;20461;-68
2024/01/20 02:35:40;;;;;;;42.73;25.10;;;;;;;;;;5097923;28;20482;-68
2024/01/20 02:38:06;;;;;;;44.00;22.37;;;;;;;;;;5105660;28;20538;-68
2024/01/20 02:40:34;;;;;;;42.57;23.57;;;;;;;;;;5090380;28;20784;-69
2024/01/20 02:43:00;;;;;;;38.80;22.03;;;;;;;;;;5097719;28;20458;-68
2024/01/20 02:45:27;;;;;;;37.97;21.80;;;;;;;;;;5094331;28;20467;-68
2024/01/20 02:47:54;;;;;;;38.07;23.20;;;;;;;;;;5090140;28;20447;-68
2024/01/20 02:50:20;;;;;;;46.13;24.20;;;;;;;;;;5096766;28;20521;-68
2024/01/20 02:52:47;;;;;;;38.73;21.47;;;;;;;;;;5098083;28;20541;-68
2024/01/20 02:55:13;;;;;;;31.57;20.10;;;;;;;;;;5094671;28;20987;-68
2024/01/20 02:57:41;;;;;;;41.83;22.47;;;;;;;;;;5100794;28;20534;-68
2024/01/20 03:00:10;;;;;;;34.73;22.37;;;;;;;;;;5097591;28;20862;-68
2024/01/20 03:02:36;;;;;;;45.80;21.20;;;;;;;;;;5084251;28;20892;-67
2024/01/20 03:05:03;;;;;;;35.50;20.10;;;;;;;;;;5092520;28;20512;-68
2024/01/20 03:07:29;;;;;;;31.63;19.37;;;;;;;;;;5093342;28;20443;-68
2024/01/20 03:09:56;;;;;;;30.83;19.00;;;;;;;;;;5090855;28;20451;-68
2024/01/20 03:12:22;;;;;;;33.73;19.53;;;;;;;;;;5107233;28;20458;-67
2024/01/20 03:14:50;;;;;;;28.73;19.90;;;;;;;;;;5106245;28;20472;-67
2024/01/20 03:17:16;;;;;;;31.67;18.50;;;;;;;;;;5089749;28;20780;-68
2024/01/20 03:19:43;;;;;;;27.50;19.00;;;;;;;;;;5097613;28;20470;-68
2024/01/20 03:22:09;;;;;;;28.93;19.10;;;;;;;;;;5097471;28;20513;-67
2024/01/20 03:24:36;;;;;;;26.90;19.10;;;;;;;;;;5096661;28;21219;-68
2024/01/20 03:27:02;;;;;;;26.10;17.10;;;;;;;;;;5095147;28;20688;-67
2024/01/20 03:29:28;;;;;;;32.60;19.00;;;;;;;;;;5104172;28;20470;-68
2024/01/20 03:31:56;;;;;;;29.57;18.43;;;;;;;;;;5095409;28;20716;-68
2024/01/20 03:34:22;;;;;;;26.97;17.60;;;;;;;;;;5097973;28;20518;-68
2024/01/20 03:36:49;;;;;;;32.97;18.07;;;;;;;;;;5105787;28;20478;-68
2024/01/20 03:39:15;;;;;;;30.37;18.17;;;;;;;;;;5106920;28;20498;-68
2024/01/20 03:41:42;;;;;;;28.73;18.40;;;;;;;;;;5096396;28;20451;-68
2024/01/20 03:44:08;;;;;;;29.47;18.50;;;;;;;;;;5096714;28;20463;-68
2024/01/20 03:46:34;;;;;;;27.10;18.60;;;;;;;;;;5085770;28;20460;-68
2024/01/20 03:49:02;;;;;;;26.20;17.03;;;;;;;;;;5096646;28;20439;-67
2024/01/20 03:51:29;;;;;;;26.53;17.90;;;;;;;;;;5093410;28;20550;-68
2024/01/20 03:53:55;;;;;;;34.80;17.80;;;;;;;;;;5095163;28;20474;-68
2024/01/20 03:56:21;;;;;;;24.97;17.30;;;;;;;;;;5104579;28;20534;-68
2024/01/20 03:58:48;;;;;;;28.60;18.03;;;;;;;;;;5094853;28;20519;-67
2024/01/20 04:01:14;;;;;;;24.03;17.30;;;;;;;;;;5094904;28;20471;-68
2024/01/20 04:03:40;;;;;;;28.13;16.00;;;;;;;;;;5092233;28;20530;-66
2024/01/20 04:06:08;;;;;;;26.77;15.57;;;;;;;;;;5096113;28;20508;-67
2024/01/20 04:08:35;;;;;;;29.53;17.50;;;;;;;;;;5096529;28;20507;-68
2024/01/20 04:11:01;;;;;;;29.60;20.20;;;;;;;;;;5091998;28;20581;-67
2024/01/20 04:13:27;;;;;;;30.53;17.50;;;;;;;;;;5096133;28;20883;-68
2024/01/20 04:15:55;;;;;;;22.43;14.77;;;;;;;;;;5091360;28;20950;-68
2024/01/20 04:18:21;;;;;;;31.33;16.97;;;;;;;;;;5101408;28;20446;-68
2024/01/20 04:20:48;;;;;;;28.93;17.40;;;;;;;;;;5090049;28;20470;-68
2024/01/20 04:23:15;;;;;;;25.67;15.50;;;;;;;;;;5095833;28;20986;-69
2024/01/20 04:25:42;;;;;;;30.20;17.67;;;;;;;;;;5094340;28;20506;-67
2024/01/20 04:28:08;;;;;;;32.87;18.17;;;;;;;;;;5096056;28;20475;-67
2024/01/20 04:30:35;;;;;;;25.67;18.05;;;;;;;;;;5094596;28;20994;-67
2024/01/20 04:33:01;;;;;;;28.55;18.42;;;;;;;;;;5094124;28;20236;-68
2024/01/20 04:35:28;;;;;;;34.13;18.13;;;;;;;;;;5094697;28;20750;-67
2024/01/20 04:37:54;;;;;;;29.33;19.00;;;;;;;;;;5095974;28;20503;-68
2024/01/20 04:40:22;;;;;;;27.33;16.27;;;;;;;;;;5103547;28;20502;-66
2024/01/20 04:42:48;;;;;;;34.73;18.00;;;;;;;;;;5090563;28;20515;-67
2024/01/20 04:45:15;;;;;;;32.67;17.60;;;;;;;;;;5083818;28;20529;-67
2024/01/20 04:47:41;;;;;;;27.20;17.80;;;;;;;;;;5094960;28;20451;-66
2024/01/20 04:50:08;;;;;;;32.20;19.58;;;;;;;;;;5088855;28;20487;-68
2024/01/20 04:52:34;;;;;;;32.00;19.20;;;;;;;;;;5089224;28;20515;-68
2024/01/20 04:55:01;;;;;;;26.80;17.83;;;;;;;;;;5094729;28;20534;-66
2024/01/20 04:57:28;;;;;;;34.03;20.63;;;;;;;;;;5097187;28;20552;-66
2024/01/20 04:59:55;;;;;;;33.43;20.47;;;;;;;;;;5087944;28;20494;-67
2024/01/20 05:02:21;;;;;;;29.93;18.70;;;;;;;;;;5096129;28;20455;-68
2024/01/20 05:04:48;;;;;;;31.20;18.13;;;;;;;;;;5092606;28;20562;-68
2024/01/20 05:07:14;;;;;;;36.60;20.60;;;;;;;;;;5094529;28;20475;-68
2024/01/20 05:09:40;;;;;;;32.67;18.17;;;;;;;;;;5095580;28;20500;-66
2024/01/20 05:12:07;;;;;;;38.67;19.63;;;;;;;;;;5095014;28;20233;-67
2024/01/20 05:14:36;;;;;;;38.42;21.45;;;;;;;;;;5092309;28;20475;-67
2024/01/20 05:17:03;;;;;;;32.30;20.58;;;;;;;;;;5094214;28;20248;-68
2024/01/20 05:19:29;;;;;;;30.90;19.80;;;;;;;;;;5099125;28;20216;-67
2024/01/20 05:21:56;;;;;;;44.43;21.33;;;;;;;;;;5095486;28;20475;-67
2024/01/20 05:24:22;;;;;;;37.40;20.90;;;;;;;;;;5091003;28;20530;-66
2024/01/20 05:26:49;;;;;;;35.13;20.40;;;;;;;;;;5094689;28;21110;-66
2024/01/20 05:29:15;;;;;;;46.13;21.50;;;;;;;;;;5094949;28;20819;-67
2024/01/20 05:31:43;;;;;;;37.35;20.83;;;;;;;;;;5086471;28;20560;-67
2024/01/20 05:34:10;;;;;;;40.27;22.10;;;;;;;;;;5095079;28;20288;-67
2024/01/20 05:36:37;;;;;;;39.67;21.40;;;;;;;;;;5091151;28;21052;-68
2024/01/20 05:39:04;;;;;;;39.10;21.55;;;;;;;;;;5097663;28;20303;-67
2024/01/20 05:41:30;;;;;;;46.78;21.10;;;;;;;;;;5088944;28;20205;-66
2024/01/20 05:43:57;;;;;;;35.88;20.33;;;;;;;;;;5101964;28;20633;-67
2024/01/20 05:46:23;;;;;;;40.63;24.70;;;;;;;;;;5090648;28;20280;-67
2024/01/20 05:48:51;;;;;;;36.53;21.80;;;;;;;;;;5091898;28;20486;-66
2024/01/20 05:51:17;;;;;;;37.73;21.83;;;;;;;;;;5089557;28;21063;-66
2024/01/20 05:53:44;;;;;;;38.17;21.53;;;;;;;;;;5094632;28;20446;-68
2024/01/20 05:56:10;;;;;;;40.27;22.00;;;;;;;;;;5093950;28;20535;-67
2024/01/20 05:58:37;;;;;;;47.47;22.97;;;;;;;;;;5099633;28;21031;-67
2024/01/20 06:01:03;;;;;;;50.53;22.90;;;;;;;;;;5087217;28;20507;-67
2024/01/20 06:03:29;;;;;;;37.17;22.00;;;;;;;;;;5097380;28;20487;-67
2024/01/20 06:05:57;;;;;;;45.43;22.60;;;;;;;;;;5093784;28;20453;-67
2024/01/20 06:08:24;;;;;;;43.40;22.63;;;;;;;;;;5095212;28;20570;-67
2024/01/20 06:10:51;;;;;;;41.60;22.00;;;;;;;;;;5094787;28;20481;-68
2024/01/20 06:13:17;;;;;;;41.53;22.17;;;;;;;;;;5097436;28;20883;-67
2024/01/20 06:15:44;;;;;;;43.87;23.00;;;;;;;;;;5104523;28;20530;-68
2024/01/20 06:18:10;;;;;;;41.40;19.58;;;;;;;;;;5095384;28;20523;-66
2024/01/20 06:20:36;;;;;;;38.10;20.40;;;;;;;;;;5105336;28;20215;-66
2024/01/20 06:23:04;;;;;;;39.33;23.27;;;;;;;;;;5099313;28;20454;-67
2024/01/20 06:25:31;;;;;;;39.77;21.40;;;;;;;;;;5097391;28;20510;-67
2024/01/20 06:27:57;;;;;;;36.53;20.90;;;;;;;;;;5098355;28;20496;-68
2024/01/20 06:30:24;;;;;;;44.47;21.30;;;;;;;;;;5096791;28;20560;-67
2024/01/20 06:32:50;;;;;;;46.40;22.50;;;;;;;;;;5097081;28;20558;-67
2024/01/20 06:35:17;;;;;;;41.50;21.03;;;;;;;;;;5097596;28;20558;-67
2024/01/20 06:37:43;;;;;;;38.20;21.20;;;;;;;;;;5101593;28;20478;-67
2024/01/20 06:40:11;;;;;;;39.37;22.57;;;;;;;;;;5096275;28;20509;-67
2024/01/20 06:42:38;;;;;;;52.77;25.13;;;;;;;;;;5092843;28;20530;-67
2024/01/20 06:45:04;;;;;;;50.03;23.27;;;;;;;;;;5096347;28;20510;-68
2024/01/20 06:47:31;;;;;;;37.67;23.00;;;;;;;;;;5088523;28;20915;-67
2024/01/20 06:49:57;;;;;;;38.73;21.87;;;;;;;;;;5095882;28;20522;-66
2024/01/20 06:52:23;;;;;;;37.40;21.50;;;;;;;;;;5096200;28;20523;-67
2024/01/20 06:54:50;;;;;;;48.10;22.63;;;;;;;;;;5101313;28;20451;-67
2024/01/20 06:57:18;;;;;;;38.47;21.50;;;;;;;;;;5091526;28;20484;-66
2024/01/20 06:59:44;;;;;;;37.00;20.20;;;;;;;;;;5092661;28;20503;-68
2024/01/20 07:02:11;;;;;;;37.77;21.33;;;;;;;;;;5089563;28;20448;-68
2024/01/20 07:04:37;;;;;;;45.17;24.40;;;;;;;;;;5094994;28;20944;-68
2024/01/20 07:07:04;;;;;;;35.20;19.50;;;;;;;;;;5094536;28;20201;-68
2024/01/20 07:09:30;;;;;;;41.07;23.00;;;;;;;;;;5096523;28;20488;-68
2024/01/20 07:11:57;;;;;;;37.67;20.53;;;;;;;;;;5097433;28;20580;-68
2024/01/20 07:14:25;;;;;;;40.63;22.48;;;;;;;;;;5097649;28;20550;-66
2024/01/20 07:16:52;;;;;;;44.60;22.30;;;;;;;;;;5090668;28;20268;-66
2024/01/20 07:19:18;;;;;;;50.17;21.67;;;;;;;;;;5095016;28;20941;-67
2024/01/20 07:21:45;;;;;;;37.00;22.17;;;;;;;;;;5091296;28;20567;-66
2024/01/20 07:24:11;;;;;;;36.03;21.00;;;;;;;;;;5085953;28;20502;-66
2024/01/20 07:26:37;;;;;;;43.97;23.47;;;;;;;;;;5088155;28;20515;-66
2024/01/20 07:29:04;;;;;;;46.50;21.45;;;;;;;;;;5090216;28;20516;-67
2024/01/20 07:31:32;;;;;;;41.07;22.40;;;;;;;;;;5084208;28;20261;-67
2024/01/20 07:33:58;;;;;;;34.57;21.70;;;;;;;;;;5087497;28;20478;-69
2024/01/20 07:36:24;;;;;;;41.47;20.27;;;;;;;;;;5088443;28;20729;-66
2024/01/20 07:38:51;;;;;;;45.00;22.37;;;;;;;;;;5089494;28;20551;-67
2024/01/20 07:41:18;;;;;;;40.20;20.17;;;;;;;;;;5090737;28;20447;-67
2024/01/20 07:43:44;;;;;;;35.63;20.50;;;;;;;;;;5091847;28;20442;-67
2024/01/20 07:46:12;;;;;;;36.73;20.60;;;;;;;;;;5092881;28;20530;-66
2024/01/20 07:48:39;;;;;;;38.90;21.43;;;;;;;;;;5099150;28;20453;-67
2024/01/20 07:51:06;;;;;;;42.10;20.57;;;;;;;;;;5097119;28;20519;-66
2024/01/20 07:53:32;;;;;;;33.70;18.27;;;;;;;;;;5093915;28;20578;-66
2024/01/20 07:55:59;;;;;;;40.50;20.50;;;;;;;;;;5093354;28;21031;-66
2024/01/20 07:58:25;;;;;;;40.43;20.77;;;;;;;;;;5092726;28;20465;-66
2024/01/20 08:00:51;;;;;;;36.97;21.33;;;;;;;;;;5094842;28;20863;-66
2024/01/20 08:03:18;;;;;;;36.37;18.90;;;;;;;;;;5093446;28;20569;-69
2024/01/20 08:05:46;;;;;;;36.73;21.37;;;;;;;;;;5096246;28;20473;-69
2024/01/20 08:08:12;;;;;;;34.30;19.90;;;;;;;;;;5094800;28;20455;-69
2024/01/20 08:10:39;;;;;;;42.80;20.97;;;;;;;;;;5088220;28;20515;-70
2024/01/20 08:13:05;;;;;;;43.57;24.40;;;;;;;;;;5094023;28;20534;-69
2024/01/20 08:15:32;;;;;;;39.30;20.50;;;;;;;;;;5094564;28;20509;-69
2024/01/20 08:17:58;;;;;;;39.47;22.20;;;;;;;;;;5097249;28;20534;-69
2024/01/20 08:20:25;;;;;;;44.03;21.47;;;;;;;;;;5091563;28;20463;-70
2024/01/20 08:22:53;;;;;;;40.90;23.20;;;;;;;;;;5096230;28;20542;-69
2024/01/20 08:25:19;;;;;;;48.77;24.80;;;;;;;;;;5102065;28;21001;-69
2024/01/20 08:27:45;;;;;;;47.80;25.40;;;;;;;;;;5100105;28;20462;-70
2024/01/20 08:30:12;;;;;;;42.93;23.53;;;;;;;;;;5095573;28;20475;-70
2024/01/20 08:32:40;;;;;;;48.97;24.13;;;;;;;;;;5094839;28;20511;-69
2024/01/20 08:35:06;;;;;;;48.80;25.70;;;;;;;;;;5092635;28;20480;-70
2024/01/20 08:37:33;;;;;;;48.47;23.27;;;;;;;;;;5100733;28;20510;-69
2024/01/20 08:40:02;;;;;;;36.00;19.93;;;;;;;;;;5086626;28;20511;-69
2024/01/20 08:42:28;;;;;;;46.83;23.00;;;;;;;;;;5101176;28;20509;-68
2024/01/20 08:44:55;;;;;;;58.13;24.53;;;;;;;;;;5101402;28;20990;-70
2024/01/20 08:47:21;;;;;;;47.77;23.43;;;;;;;;;;5092392;28;20473;-70
2024/01/20 08:49:51;;;;;;;45.10;22.53;;;;;;;;;;5091706;28;21038;-68
2024/01/20 08:52:17;;;;;;;43.10;23.07;;;;;;;;;;5088060;28;20507;-69
2024/01/20 08:54:44;;;;;;;43.57;22.33;;;;;;;;;;5094883;28;20508;-69
2024/01/20 08:57:12;;;;;;;42.07;23.27;;;;;;;;;;5090557;28;20894;-68
2024/01/20 08:59:38;;;;;;;42.97;22.63;;;;;;;;;;5093270;28;20455;-70
2024/01/20 09:02:05;;;;;;;51.23;25.53;;;;;;;;;;5093823;28;20986;-70
2024/01/20 09:04:32;;;;;;;48.73;24.17;;;;;;;;;;5094256;28;20496;-69
2024/01/20 09:06:58;;;;;;;33.73;18.87;;;;;;;;;;5092400;28;20526;-70
2024/01/20 09:09:25;;;;;;;36.73;22.77;;;;;;;;;;5096322;28;20456;-70
2024/01/20 09:11:51;;;;;;;43.80;22.43;;;;;;;;;;5090655;28;21022;-69
2024/01/20 09:14:19;;;;;;;47.07;22.73;;;;;;;;;;5091097;28;20477;-70
2024/01/20 09:16:46;;;;;;;42.20;23.67;;;;;;;;;;5084758;28;20470;-69
2024/01/20 09:19:12;;;;;;;48.03;26.50;;;;;;;;;;5088684;28;20452;-69
2024/01/20 09:21:38;;;;;;;38.43;24.43;;;;;;;;;;5088173;28;20491;-70
2024/01/20 09:24:05;;;;;;;40.87;21.83;;;;;;;;;;5093113;28;20444;-69
2024/01/20 09:26:31;;;;;;;38.13;21.93;;;;;;;;;;5088034;28;20451;-69
2024/01/20 09:28:58;;;;;;;41.00;22.30;;;;;;;;;;5090807;28;20470;-70
2024/01/20 09:31:26;;;;;;;34.03;17.10;;;;;;;;;;5086910;28;20785;-69
2024/01/20 09:33:52;;;;;;;40.97;22.67;;;;;;;;;;5091246;28;20575;-69
2024/01/20 09:36:19;;;;;;;33.60;22.17;;;;;;;;;;5087950;28;20858;-69
2024/01/20 09:38:45;;;;;;;31.70;19.30;;;;;;;;;;5083971;28;20501;-69
2024/01/20 09:41:12;;;;;;;37.83;19.23;;;;;;;;;;5090673;28;20477;-70
2024/01/20 09:43:39;;;;;;;29.00;19.03;;;;;;;;;;5090403;28;20535;-69
2024/01/20 09:46:05;;;;;;;32.00;18.43;;;;;;;;;;5089451;28;20975;-69
2024/01/20 09:48:33;;;;;;;35.83;21.30;;;;;;;;;;5109076;28;21033;-69
2024/01/20 09:51:00;;;;;;;37.43;20.00;;;;;;;;;;5102795;28;20530;-75
2024/01/20 09:53:26;;;;;;;31.93;21.37;;;;;;;;;;5092547;28;20521;-69
2024/01/20 09:55:52;;;;;;;32.93;21.10;;;;;;;;;;5098144;28;20503;-69
2024/01/20 09:58:19;;;;;;;27.60;19.70;;;;;;;;;;5099151;28;20466;-69
2024/01/20 10:00:46;;;;;;;29.40;18.90;;;;;;;;;;5094241;28;20462;-69
2024/01/20 10:03:12;;;;;;;25.00;17.83;;;;;;;;;;5098706;28;20450;-68
2024/01/20 10:05:40;;;;;;;26.70;22.30;;;;;;;;;;5093087;28;20875;-70
2024/01/20 10:08:07;;;;;;;22.20;16.70;;;;;;;;;;5095788;28;20457;-70
2024/01/20 10:10:34;;;;;;;21.23;16.07;;;;;;;;;;5087229;28;20524;-68
2024/01/20 10:13:02;;;;;;;26.70;18.20;;;;;;;;;;5091363;28;20535;-68
2024/01/20 10:15:30;;;;;;;23.07;20.10;;;;;;;;;;5089738;28;20450;-69
2024/01/20 10:17:56;;;;;;;24.20;21.90;;;;;;;;;;5102029;28;20465;-68
2024/01/20 10:20:23;;;;;;;23.90;21.43;;;;;;;;;;5094287;28;20470;-69
2024/01/20 10:22:51;;;;;;;24.67;22.30;;;;;;;;;;5102583;28;20498;-70
2024/01/20 10:25:19;;;;;;;25.10;22.60;;;;;;;;;;5094598;28;20493;-69
2024/01/20 10:27:47;;;;;;;25.10;22.80;;;;;;;;;;5093018;28;20467;-67
2024/01/20 10:30:13;;;;;;;23.20;20.30;;;;;;;;;;5089435;28;20459;-67
2024/01/20 10:32:40;;;;;;;20.87;18.90;;;;;;;;;;5101345;28;20496;-69
2024/01/20 10:35:08;;;;;;;22.90;18.60;;;;;;;;;;5094587;28;20493;-69
2024/01/20 10:37:34;;;;;;;19.20;17.20;;;;;;;;;;5091160;28;20454;-68
2024/01/20 10:40:03;;;;;;;20.43;18.43;;;;;;;;;;5095701;28;21007;-67
2024/01/20 10:42:31;;;;;;;22.30;19.20;;;;;;;;;;5094108;28;20447;-69
2024/01/20 10:45:03;;;;;;;24.67;20.10;;;;;;;;;;5096279;28;20456;-69
2024/01/20 10:47:33;;;;;;;19.77;17.67;;;;;;;;;;5088227;28;20538;-69
2024/01/20 10:50:03;;;;;;;20.30;18.27;;;;;;;;;;5098315;28;20566;-69
2024/01/20 10:52:29;;;;;;;23.87;17.97;;;;;;;;;;5096403;28;20498;-70
2024/01/20 10:54:55;;;;;;;19.77;17.80;;;;;;;;;;5100884;28;20501;-68
2024/01/20 10:57:23;;;;;;;20.87;18.67;;;;;;;;;;5098073;28;20455;-68
2024/01/20 10:59:50;;;;;;;20.87;19.00;;;;;;;;;;5093040;28;20455;-67
2024/01/20 11:02:16;;;;;;;20.67;18.53;;;;;;;;;;5086342;28;20506;-69
2024/01/20 11:04:44;;;;;;;20.77;18.50;;;;;;;;;;5085350;28;20931;-68
2024/01/20 11:07:12;;;;;;;22.10;18.90;;;;;;;;;;5094445;28;20450;-69
2024/01/20 11:09:39;;;;;;;20.70;18.73;;;;;;;;;;5097340;28;20458;-69
2024/01/20 11:12:07;;;;;;;19.73;17.93;;;;;;;;;;5091919;28;20806;-69
2024/01/20 11:14:35;;;;;;;20.43;18.57;;;;;;;;;;5092635;28;20510;-69
2024/01/20 11:17:11;;;;;;;20.37;18.60;;;;;;;;;;5102588;28;20534;-68
2024/01/20 11:19:38;;;;;;;21.10;19.30;;;;;;;;;;5094316;28;20547;-68
2024/01/20 11:22:04;;;;;;;21.43;19.20;;;;;;;;;;5096711;28;20451;-69
2024/01/20 11:24:38;;;;;;;19.63;17.90;;;;;;;;;;5095957;28;21075;-69
2024/01/20 11:27:05;;;;;;;20.20;18.13;;;;;;;;;;5097004;28;20871;-68
2024/01/20 11:29:32;;;;;;;19.57;17.90;;;;;;;;;;5092612;28;20462;-69
2024/01/20 11:31:59;;;;;;;19.47;17.40;;;;;;;;;;5092040;28;20842;-68
2024/01/20 11:34:26;;;;;;;20.17;18.37;;;;;;;;;;5096156;28;20491;-68
2024/01/20 11:36:53;;;;;;;19.90;17.93;;;;;;;;;;5098949;28;20494;-69
2024/01/20 11:39:19;;;;;;;19.23;17.60;;;;;;;;;;5090629;28;20517;-70
2024/01/20 11:41:46;;;;;;;19.63;17.87;;;;;;;;;;5094828;28;20463;-67
2024/01/20 11:44:12;;;;;;;19.53;17.70;;;;;;;;;;5096204;28;20482;-69
2024/01/20 11:46:39;;;;;;;19.80;18.10;;;;;;;;;;5095375;28;20482;-68
2024/01/20 11:49:06;;;;;;;19.93;18.03;;;;;;;;;;5095966;28;20986;-67
2024/01/20 11:51:33;;;;;;;18.90;16.90;;;;;;;;;;5095749;28;20483;-69
2024/01/20 11:53:59;;;;;;;16.70;14.70;;;;;;;;;;5090530;28;20570;-69
2024/01/20 11:56:26;;;;;;;15.90;14.50;;;;;;;;;;5095804;28;20557;-69
2024/01/20 11:58:52;;;;;;;17.80;14.90;;;;;;;;;;5095577;28;21095;-69
2024/01/20 12:01:19;;;;;;;16.40;14.90;;;;;;;;;;5095812;28;20965;-69
2024/01/20 12:03:45;;;;;;;18.23;15.83;;;;;;;;;;5090981;28;20451;-69
2024/01/20 12:06:13;;;;;;;16.00;14.60;;;;;;;;;;5099331;28;20478;-68
2024/01/20 12:08:40;;;;;;;18.03;16.27;;;;;;;;;;5098911;28;20490;-68
2024/01/20 12:11:07;;;;;;;19.30;17.60;;;;;;;;;;5085407;28;20481;-69
2024/01/20 12:13:35;;;;;;;17.97;16.40;;;;;;;;;;5090785;28;20483;-69
2024/01/20 12:16:01;;;;;;;18.20;16.33;;;;;;;;;;5090942;28;20455;-70
2024/01/20 12:18:28;;;;;;;18.87;17.17;;;;;;;;;;5095098;28;20932;-69
2024/01/20 12:20:54;;;;;;;18.73;16.87;;;;;;;;;;5094859;28;20522;-69
2024/01/20 12:23:22;;;;;;;17.67;16.17;;;;;;;;;;5098784;28;20467;-68
2024/01/20 12:25:51;;;;;;;18.30;16.60;;;;;;;;;;5101520;28;20634;-68
2024/01/20 12:28:18;;;;;;;18.33;16.80;;;;;;;;;;5095843;28;20451;-69
2024/01/20 12:30:44;;;;;;;17.47;16.07;;;;;;;;;;5091491;28;20523;-68
2024/01/20 12:33:10;;;;;;;19.87;17.90;;;;;;;;;;5095198;28;20521;-69
2024/01/20 12:35:37;;;;;;;15.30;10.50;;;;;;;;;;5090530;28;20493;-67
2024/01/20 12:38:04;;;;;;;17.10;15.60;;;;;;;;;;5095255;28;20459;-69
2024/01/20 12:40:32;;;;;;;16.67;15.27;;;;;;;;;;5095043;28;20447;-69
2024/01/20 12:42:58;;;;;;;17.07;15.57;;;;;;;;;;5092579;28;20462;-69
2024/01/20 12:45:25;;;;;;;18.37;16.50;;;;;;;;;;5091901;28;20524;-68
2024/01/20 12:47:52;;;;;;;14.97;13.50;;;;;;;;;;5097346;28;20451;-68
2024/01/20 12:50:19;;;;;;;17.00;15.60;;;;;;;;;;5089242;28;21054;-68
2024/01/20 12:52:45;;;;;;;15.00;13.60;;;;;;;;;;5087525;28;20518;-68
2024/01/20 12:55:12;;;;;;;14.63;13.20;;;;;;;;;;5094973;28;20792;-68
2024/01/20 12:57:40;;;;;;;14.70;13.43;;;;;;;;;;5087963;28;20582;-70
2024/01/20 13:00:09;;;;;;;15.13;13.67;;;;;;;;;;5090936;28;20739;-69
2024/01/20 13:02:36;;;;;;;16.30;14.80;;;;;;;;;;5088495;28;20513;-68
2024/01/20 13:05:03;;;;;;;14.70;13.50;;;;;;;;;;5092429;28;20475;-68
2024/01/20 13:07:30;;;;;;;18.40;13.50;;;;;;;;;;5097112;28;20451;-69
2024/01/20 13:09:56;;;;;;;16.77;14.63;;;;;;;;;;5092290;28;20502;-68
2024/01/20 13:12:23;;;;;;;14.77;13.50;;;;;;;;;;5086691;28;20482;-68
2024/01/20 13:14:50;;;;;;;15.80;14.30;;;;;;;;;;5090793;28;20529;-69
2024/01/20 13:17:17;;;;;;;16.13;14.53;;;;;;;;;;5089393;28;20483;-69
2024/01/20 13:19:43;;;;;;;14.00;12.63;;;;;;;;;;5089395;28;20550;-69
2024/01/20 13:22:10;;;;;;;16.13;14.70;;;;;;;;;;5090360;28;20896;-69
2024/01/20 13:24:37;;;;;;;15.43;14.00;;;;;;;;;;5092041;28;20476;-69
2024/01/20 13:27:03;;;;;;;15.50;14.10;;;;;;;;;;5090618;28;20507;-69
2024/01/20 13:29:30;;;;;;;14.60;12.43;;;;;;;;;;5095114;28;20529;-69
2024/01/20 13:31:58;;;;;;;14.87;13.73;;;;;;;;;;5090806;28;20546;-69
2024/01/20 13:34:24;;;;;;;15.70;14.33;;;;;;;;;;5095465;28;20562;-70
2024/01/20 13:36:51;;;;;;;16.13;14.63;;;;;;;;;;5091592;28;20513;-70
2024/01/20 13:39:18;;;;;;;17.30;15.73;;;;;;;;;;5092701;28;21353;-68
2024/01/20 13:41:44;;;;;;;17.87;16.40;;;;;;;;;;5095422;28;20447;-69
2024/01/20 13:44:11;;;;;;;18.03;16.30;;;;;;;;;;5091229;28;20439;-69
2024/01/20 13:46:37;;;;;;;19.07;17.47;;;;;;;;;;5090392;28;20459;-69
2024/01/20 13:49:05;;;;;;;18.63;17.33;;;;;;;;;;5086700;28;20475;-70
2024/01/20 13:51:32;;;;;;;18.53;17.10;;;;;;;;;;5091449;28;20506;-68
2024/01/20 13:53:59;;;;;;;19.40;17.90;;;;;;;;;;5092166;28;20483;-68
2024/01/20 13:56:25;;;;;;;21.70;18.90;;;;;;;;;;5088217;28;20450;-68
2024/01/20 13:58:52;;;;;;;20.40;18.63;;;;;;;;;;5086632;28;20493;-68
2024/01/20 14:01:21;;;;;;;20.30;18.70;;;;;;;;;;5093513;28;20453;-69
2024/01/20 14:03:47;;;;;;;19.93;18.27;;;;;;;;;;5088716;28;20505;-70
2024/01/20 14:06:15;;;;;;;18.73;17.07;;;;;;;;;;5088199;28;20493;-70
2024/01/20 14:08:41;;;;;;;18.70;15.23;;;;;;;;;;5091171;28;20475;-70
2024/01/20 14:11:08;;;;;;;15.53;14.23;;;;;;;;;;5091454;28;20526;-70
2024/01/20 14:13:34;;;;;;;16.77;15.27;;;;;;;;;;5091531;28;20566;-70